sensor_id;sensor_type;location;lat;lon;timestamp;temperature;humidity
79469;DHT22;68936;52.526;13.326;2023-04-15T00:00:17;18.90;67.90
79469;DHT22;68936;52.526;13.326;2023-04-15T00:02:43;18.80;67.60
79469;DHT22;68936;52.526;13.326;2023-04-15T00:05:08;18.90;67.60
79469;DHT22;68936;52.526;13.326;2023-04-15T00:07:36;18.90;67.70
79469;DHT22;68936;52.526;13.326;2023-04-15T00:10:05;18.80;67.30
79469;DHT22;68936;52.526;13.326;2023-04-15T00:12:33;18.80;67.30
79469;DHT22;68936;52.526;13.326;2023-04-15T00:15:01;18.90;67.10
79469;DHT22;68936;52.526;13.326;2023-04-15T00:17:27;18.90;67.80
79469;DHT22;68936;52.526;13.326;2023-04-15T00:19:52;18.80;67.00
79469;DHT22;68936;52.526;13.326;2023-04-15T00:22:19;18.90;67.50
79469;DHT22;68936;52.526;13.326;2023-04-15T00:24:44;18.90;66.70
79469;DHT22;68936;52.526;13.326;2023-04-15T00:27:10;18.90;67.10
79469;DHT22;68936;52.526;13.326;2023-04-15T00:29:38;18.90;67.40
79469;DHT22;68936;52.526;13.326;2023-04-15T00:32:06;18.90;66.90
79469;DHT22;68936;52.526;13.326;2023-04-15T00:34:34;18.80;67.60
79469;DHT22;68936;52.526;13.326;2023-04-15T00:37:02;18.90;67.40
79469;DHT22;68936;52.526;13.326;2023-04-15T00:39:30;18.80;66.80
79469;DHT22;68936;52.526;13.326;2023-04-15T00:41:58;18.80;66.80
79469;DHT22;68936;52.526;13.326;2023-04-15T00:44:24;18.80;66.30
79469;DHT22;68936;52.526;13.326;2023-04-15T00:46:50;18.80;67.00
79469;DHT22;68936;52.526;13.326;2023-04-15T00:49:16;18.80;66.00
79469;DHT22;68936;52.526;13.326;2023-04-15T00:51:44;18.80;66.70
79469;DHT22;68936;52.526;13.326;2023-04-15T00:54:10;18.80;65.80
79469;DHT22;68936;52.526;13.326;2023-04-15T00:56:39;18.90;66.50
79469;DHT22;68936;52.526;13.326;2023-04-15T00:59:08;18.80;66.00
79469;DHT22;68936;52.526;13.326;2023-04-15T01:01:36;18.80;66.70
79469;DHT22;68936;52.526;13.326;2023-04-15T01:04:03;18.80;65.10
79469;DHT22;68936;52.526;13.326;2023-04-15T01:06:32;18.80;66.70
79469;DHT22;68936;52.526;13.326;2023-04-15T01:08:58;18.80;65.80
79469;DHT22;68936;52.526;13.326;2023-04-15T01:11:25;18.80;66.40
79469;DHT22;68936;52.526;13.326;2023-04-15T01:13:54;18.90;66.20
79469;DHT22;68936;52.526;13.326;2023-04-15T01:16:24;18.90;66.50
79469;DHT22;68936;52.526;13.326;2023-04-15T01:18:50;18.90;66.00
79469;DHT22;68936;52.526;13.326;2023-04-15T01:21:19;18.90;65.70
79469;DHT22;68936;52.526;13.326;2023-04-15T01:23:49;18.90;65.10
79469;DHT22;68936;52.526;13.326;2023-04-15T01:26:15;18.90;65.30
79469;DHT22;68936;52.526;13.326;2023-04-15T01:28:41;18.90;65.10
79469;DHT22;68936;52.526;13.326;2023-04-15T01:31:11;18.90;64.50
79469;DHT22;68936;52.526;13.326;2023-04-15T01:33:38;18.90;65.00
79469;DHT22;68936;52.526;13.326;2023-04-15T01:36:05;18.90;66.00
79469;DHT22;68936;52.526;13.326;2023-04-15T01:38:33;18.90;66.40
79469;DHT22;68936;52.526;13.326;2023-04-15T01:41:01;18.90;65.20
79469;DHT22;68936;52.526;13.326;2023-04-15T01:43:31;18.90;65.20
79469;DHT22;68936;52.526;13.326;2023-04-15T01:45:58;18.90;66.00
79469;DHT22;68936;52.526;13.326;2023-04-15T01:48:24;18.90;64.70
79469;DHT22;68936;52.526;13.326;2023-04-15T01:50:51;18.90;64.90
79469;DHT22;68936;52.526;13.326;2023-04-15T01:53:17;18.90;64.50
79469;DHT22;68936;52.526;13.326;2023-04-15T01:55:45;18.90;64.60
79469;DHT22;68936;52.526;13.326;2023-04-15T01:58:11;18.80;65.30
79469;DHT22;68936;52.526;13.326;2023-04-15T02:00:36;18.90;65.30
79469;DHT22;68936;52.526;13.326;2023-04-15T02:03:05;18.90;65.50
79469;DHT22;68936;52.526;13.326;2023-04-15T02:05:31;18.90;64.40
79469;DHT22;68936;52.526;13.326;2023-04-15T02:07:56;18.90;64.90
79469;DHT22;68936;52.526;13.326;2023-04-15T02:10:24;18.90;65.20
79469;DHT22;68936;52.526;13.326;2023-04-15T02:12:50;18.90;64.80
79469;DHT22;68936;52.526;13.326;2023-04-15T02:15:18;18.90;64.70
79469;DHT22;68936;52.526;13.326;2023-04-15T02:17:44;18.90;63.90
79469;DHT22;68936;52.526;13.326;2023-04-15T02:20:15;18.90;64.90
79469;DHT22;68936;52.526;13.326;2023-04-15T02:22:44;18.90;64.90
79469;DHT22;68936;52.526;13.326;2023-04-15T02:25:10;18.90;64.80
79469;DHT22;68936;52.526;13.326;2023-04-15T02:27:37;18.90;64.90
79469;DHT22;68936;52.526;13.326;2023-04-15T02:30:03;18.90;64.00
79469;DHT22;68936;52.526;13.326;2023-04-15T02:32:29;18.90;64.40
79469;DHT22;68936;52.526;13.326;2023-04-15T02:35:04;18.90;64.30
79469;DHT22;68936;52.526;13.326;2023-04-15T02:37:31;18.90;65.10
79469;DHT22;68936;52.526;13.326;2023-04-15T02:40:01;18.90;63.90
79469;DHT22;68936;52.526;13.326;2023-04-15T02:42:29;18.90;65.10
79469;DHT22;68936;52.526;13.326;2023-04-15T02:44:56;18.90;64.30
79469;DHT22;68936;52.526;13.326;2023-04-15T02:47:22;18.90;64.20
79469;DHT22;68936;52.526;13.326;2023-04-15T02:49:48;18.90;64.10
79469;DHT22;68936;52.526;13.326;2023-04-15T02:52:13;18.90;64.40
79469;DHT22;68936;52.526;13.326;2023-04-15T02:54:39;18.90;65.20
79469;DHT22;68936;52.526;13.326;2023-04-15T02:57:07;18.90;64.50
79469;DHT22;68936;52.526;13.326;2023-04-15T02:59:33;19.00;64.20
79469;DHT22;68936;52.526;13.326;2023-04-15T03:01:58;18.90;63.70
79469;DHT22;68936;52.526;13.326;2023-04-15T03:04:32;18.90;63.70
79469;DHT22;68936;52.526;13.326;2023-04-15T03:06:57;18.80;64.20
79469;DHT22;68936;52.526;13.326;2023-04-15T03:09:23;18.80;63.60
79469;DHT22;68936;52.526;13.326;2023-04-15T03:11:48;18.90;63.60
79469;DHT22;68936;52.526;13.326;2023-04-15T03:14:15;18.90;64.70
79469;DHT22;68936;52.526;13.326;2023-04-15T03:16:41;18.90;64.40
79469;DHT22;68936;52.526;13.326;2023-04-15T03:19:11;18.90;63.90
79469;DHT22;68936;52.526;13.326;2023-04-15T03:21:39;18.90;64.30
79469;DHT22;68936;52.526;13.326;2023-04-15T03:24:07;19.00;63.30
79469;DHT22;68936;52.526;13.326;2023-04-15T03:26:32;19.00;63.50
79469;DHT22;68936;52.526;13.326;2023-04-15T03:29:00;18.90;63.20
79469;DHT22;68936;52.526;13.326;2023-04-15T03:31:30;18.90;63.20
79469;DHT22;68936;52.526;13.326;2023-04-15T03:33:56;18.90;63.30
79469;DHT22;68936;52.526;13.326;2023-04-15T03:36:22;18.90;63.80
79469;DHT22;68936;52.526;13.326;2023-04-15T03:38:50;18.90;63.70
79469;DHT22;68936;52.526;13.326;2023-04-15T03:41:18;18.90;63.30
79469;DHT22;68936;52.526;13.326;2023-04-15T03:43:44;18.90;63.80
79469;DHT22;68936;52.526;13.326;2023-04-15T03:46:11;18.90;63.20
79469;DHT22;68936;52.526;13.326;2023-04-15T03:48:37;18.90;63.30
79469;DHT22;68936;52.526;13.326;2023-04-15T03:51:03;18.90;63.30
79469;DHT22;68936;52.526;13.326;2023-04-15T03:53:31;18.90;63.20
79469;DHT22;68936;52.526;13.326;2023-04-15T03:55:59;18.90;63.10
79469;DHT22;68936;52.526;13.326;2023-04-15T03:58:25;18.90;64.10
79469;DHT22;68936;52.526;13.326;2023-04-15T04:00:53;18.90;63.70
79469;DHT22;68936;52.526;13.326;2023-04-15T04:03:19;18.90;64.00
79469;DHT22;68936;52.526;13.326;2023-04-15T04:05:45;18.90;63.30
79469;DHT22;68936;52.526;13.326;2023-04-15T04:08:13;18.90;63.30
79469;DHT22;68936;52.526;13.326;2023-04-15T04:10:43;18.90;63.80
79469;DHT22;68936;52.526;13.326;2023-04-15T04:13:11;18.90;63.40
79469;DHT22;68936;52.526;13.326;2023-04-15T04:15:37;18.90;63.40
79469;DHT22;68936;52.526;13.326;2023-04-15T04:18:05;18.90;63.00
79469;DHT22;68936;52.526;13.326;2023-04-15T04:20:33;18.90;63.80
79469;DHT22;68936;52.526;13.326;2023-04-15T04:22:58;19.00;62.50
79469;DHT22;68936;52.526;13.326;2023-04-15T04:25:27;18.90;63.20
79469;DHT22;68936;52.526;13.326;2023-04-15T04:27:55;18.90;63.00
79469;DHT22;68936;52.526;13.326;2023-04-15T04:30:21;19.00;63.80
79469;DHT22;68936;52.526;13.326;2023-04-15T04:32:48;19.00;63.20
79469;DHT22;68936;52.526;13.326;2023-04-15T04:35:16;18.90;63.30
79469;DHT22;68936;52.526;13.326;2023-04-15T04:37:47;19.00;62.80
79469;DHT22;68936;52.526;13.326;2023-04-15T04:40:13;18.90;63.10
79469;DHT22;68936;52.526;13.326;2023-04-15T04:42:41;18.90;63.60
79469;DHT22;68936;52.526;13.326;2023-04-15T04:45:11;18.90;62.90
79469;DHT22;68936;52.526;13.326;2023-04-15T04:47:39;18.90;62.60
79469;DHT22;68936;52.526;13.326;2023-04-15T04:50:05;18.90;62.90
79469;DHT22;68936;52.526;13.326;2023-04-15T04:52:33;19.00;63.10
79469;DHT22;68936;52.526;13.326;2023-04-15T04:54:59;18.90;62.50
79469;DHT22;68936;52.526;13.326;2023-04-15T04:57:25;18.90;62.70
79469;DHT22;68936;52.526;13.326;2023-04-15T04:59:50;19.00;62.70
79469;DHT22;68936;52.526;13.326;2023-04-15T05:02:16;18.90;63.20
79469;DHT22;68936;52.526;13.326;2023-04-15T05:04:44;18.90;63.60
79469;DHT22;68936;52.526;13.326;2023-04-15T05:07:10;19.00;62.30
79469;DHT22;68936;52.526;13.326;2023-04-15T05:09:36;18.90;63.10
79469;DHT22;68936;52.526;13.326;2023-04-15T05:12:05;18.90;62.90
79469;DHT22;68936;52.526;13.326;2023-04-15T05:14:38;19.00;62.60
79469;DHT22;68936;52.526;13.326;2023-04-15T05:17:08;19.00;63.30
79469;DHT22;68936;52.526;13.326;2023-04-15T05:19:35;19.00;62.70
79469;DHT22;68936;52.526;13.326;2023-04-15T05:22:03;19.00;62.50
79469;DHT22;68936;52.526;13.326;2023-04-15T05:24:29;18.90;62.50
79469;DHT22;68936;52.526;13.326;2023-04-15T05:26:55;19.00;62.70
79469;DHT22;68936;52.526;13.326;2023-04-15T05:29:21;19.00;62.00
79469;DHT22;68936;52.526;13.326;2023-04-15T05:31:47;19.00;63.00
79469;DHT22;68936;52.526;13.326;2023-04-15T05:34:12;19.00;62.70
79469;DHT22;68936;52.526;13.326;2023-04-15T05:36:42;19.00;62.50
79469;DHT22;68936;52.526;13.326;2023-04-15T05:39:07;19.00;61.70
79469;DHT22;68936;52.526;13.326;2023-04-15T05:41:33;19.00;62.50
79469;DHT22;68936;52.526;13.326;2023-04-15T05:43:59;19.00;62.80
79469;DHT22;68936;52.526;13.326;2023-04-15T05:46:27;19.00;62.80
79469;DHT22;68936;52.526;13.326;2023-04-15T05:48:52;19.00;62.20
79469;DHT22;68936;52.526;13.326;2023-04-15T05:51:18;19.00;62.50
79469;DHT22;68936;52.526;13.326;2023-04-15T05:53:44;19.00;62.50
79469;DHT22;68936;52.526;13.326;2023-04-15T05:56:10;19.00;62.50
79469;DHT22;68936;52.526;13.326;2023-04-15T05:58:36;19.00;62.30
79469;DHT22;68936;52.526;13.326;2023-04-15T06:01:03;19.00;62.60
79469;DHT22;68936;52.526;13.326;2023-04-15T06:03:28;19.00;62.00
79469;DHT22;68936;52.526;13.326;2023-04-15T06:05:54;19.10;62.00
79469;DHT22;68936;52.526;13.326;2023-04-15T06:08:23;19.00;61.70
79469;DHT22;68936;52.526;13.326;2023-04-15T06:10:48;19.00;61.90
79469;DHT22;68936;52.526;13.326;2023-04-15T06:13:18;19.00;62.10
79469;DHT22;68936;52.526;13.326;2023-04-15T06:15:44;19.10;62.20
79469;DHT22;68936;52.526;13.326;2023-04-15T06:18:10;19.10;61.80
79469;DHT22;68936;52.526;13.326;2023-04-15T06:20:38;19.10;62.00
79469;DHT22;68936;52.526;13.326;2023-04-15T06:23:06;19.10;61.70
79469;DHT22;68936;52.526;13.326;2023-04-15T06:25:32;19.10;61.90
79469;DHT22;68936;52.526;13.326;2023-04-15T06:27:58;19.10;62.00
79469;DHT22;68936;52.526;13.326;2023-04-15T06:30:26;19.20;61.70
79469;DHT22;68936;52.526;13.326;2023-04-15T06:32:52;19.20;61.40
79469;DHT22;68936;52.526;13.326;2023-04-15T06:35:20;19.20;61.70
79469;DHT22;68936;52.526;13.326;2023-04-15T06:37:45;19.20;62.20
79469;DHT22;68936;52.526;13.326;2023-04-15T06:40:11;19.20;61.20
79469;DHT22;68936;52.526;13.326;2023-04-15T06:42:37;19.20;61.50
79469;DHT22;68936;52.526;13.326;2023-04-15T06:45:03;19.20;61.30
79469;DHT22;68936;52.526;13.326;2023-04-15T06:47:29;19.20;61.40
79469;DHT22;68936;52.526;13.326;2023-04-15T06:49:57;19.30;61.20
79469;DHT22;68936;52.526;13.326;2023-04-15T06:52:23;19.20;61.20
79469;DHT22;68936;52.526;13.326;2023-04-15T06:54:51;19.30;61.70
79469;DHT22;68936;52.526;13.326;2023-04-15T06:57:19;19.20;61.20
79469;DHT22;68936;52.526;13.326;2023-04-15T06:59:44;19.30;61.40
79469;DHT22;68936;52.526;13.326;2023-04-15T07:02:12;19.30;61.20
79469;DHT22;68936;52.526;13.326;2023-04-15T07:04:38;19.30;61.20
79469;DHT22;68936;52.526;13.326;2023-04-15T07:07:04;19.30;60.40
79469;DHT22;68936;52.526;13.326;2023-04-15T07:09:30;19.30;61.30
79469;DHT22;68936;52.526;13.326;2023-04-15T07:11:59;19.30;60.60
79469;DHT22;68936;52.526;13.326;2023-04-15T07:14:24;19.30;61.50
79469;DHT22;68936;52.526;13.326;2023-04-15T07:16:53;19.30;61.00
79469;DHT22;68936;52.526;13.326;2023-04-15T07:19:19;19.30;60.60
79469;DHT22;68936;52.526;13.326;2023-04-15T07:21:45;19.40;60.60
79469;DHT22;68936;52.526;13.326;2023-04-15T07:24:11;19.40;60.60
79469;DHT22;68936;52.526;13.326;2023-04-15T07:26:36;19.40;59.90
79469;DHT22;68936;52.526;13.326;2023-04-15T07:29:02;19.40;60.20
79469;DHT22;68936;52.526;13.326;2023-04-15T07:31:28;19.40;60.30
79469;DHT22;68936;52.526;13.326;2023-04-15T07:33:53;19.40;60.40
79469;DHT22;68936;52.526;13.326;2023-04-15T07:36:19;19.50;60.50
79469;DHT22;68936;52.526;13.326;2023-04-15T07:38:45;19.40;60.30
79469;DHT22;68936;52.526;13.326;2023-04-15T07:41:12;19.50;60.60
79469;DHT22;68936;52.526;13.326;2023-04-15T07:43:40;19.50;59.70
79469;DHT22;68936;52.526;13.326;2023-04-15T07:46:09;19.50;60.40
79469;DHT22;68936;52.526;13.326;2023-04-15T07:48:34;19.50;60.70
79469;DHT22;68936;52.526;13.326;2023-04-15T07:51:00;19.50;60.00
79469;DHT22;68936;52.526;13.326;2023-04-15T07:53:26;19.40;59.50
79469;DHT22;68936;52.526;13.326;2023-04-15T07:55:57;19.50;59.60
79469;DHT22;68936;52.526;13.326;2023-04-15T07:58:23;19.50;61.10
79469;DHT22;68936;52.526;13.326;2023-04-15T08:00:51;19.40;59.80
79469;DHT22;68936;52.526;13.326;2023-04-15T08:03:20;19.50;60.70
79469;DHT22;68936;52.526;13.326;2023-04-15T08:05:49;19.60;62.00
79469;DHT22;68936;52.526;13.326;2023-04-15T08:08:14;19.60;61.30
79469;DHT22;68936;52.526;13.326;2023-04-15T08:10:40;19.70;60.70
79469;DHT22;68936;52.526;13.326;2023-04-15T08:13:06;19.60;60.80
79469;DHT22;68936;52.526;13.326;2023-04-15T08:15:34;19.60;61.30
79469;DHT22;68936;52.526;13.326;2023-04-15T08:18:03;19.50;60.90
79469;DHT22;68936;52.526;13.326;2023-04-15T08:20:28;19.50;62.20
79469;DHT22;68936;52.526;13.326;2023-04-15T08:22:54;19.50;63.20
79469;DHT22;68936;52.526;13.326;2023-04-15T08:25:22;19.70;63.60
79469;DHT22;68936;52.526;13.326;2023-04-15T08:27:48;19.70;64.00
79469;DHT22;68936;52.526;13.326;2023-04-15T08:30:14;19.80;63.80
79469;DHT22;68936;52.526;13.326;2023-04-15T08:32:44;19.70;64.30
79469;DHT22;68936;52.526;13.326;2023-04-15T08:35:16;19.80;64.10
79469;DHT22;68936;52.526;13.326;2023-04-15T08:37:42;19.90;62.30
79469;DHT22;68936;52.526;13.326;2023-04-15T08:40:08;19.80;62.70
79469;DHT22;68936;52.526;13.326;2023-04-15T08:42:42;19.90;62.90
79469;DHT22;68936;52.526;13.326;2023-04-15T08:45:09;19.80;61.80
79469;DHT22;68936;52.526;13.326;2023-04-15T08:47:37;19.80;63.20
79469;DHT22;68936;52.526;13.326;2023-04-15T08:50:07;19.80;62.30
79469;DHT22;68936;52.526;13.326;2023-04-15T08:52:33;19.80;63.00
79469;DHT22;68936;52.526;13.326;2023-04-15T08:55:02;19.80;63.00
79469;DHT22;68936;52.526;13.326;2023-04-15T08:57:29;19.80;63.20
79469;DHT22;68936;52.526;13.326;2023-04-15T08:59:55;19.90;63.70
79469;DHT22;68936;52.526;13.326;2023-04-15T09:02:24;19.90;63.30
79469;DHT22;68936;52.526;13.326;2023-04-15T09:04:51;20.00;63.60
79469;DHT22;68936;52.526;13.326;2023-04-15T09:07:19;19.90;63.40
79469;DHT22;68936;52.526;13.326;2023-04-15T09:09:47;19.90;63.20
79469;DHT22;68936;52.526;13.326;2023-04-15T09:12:13;19.90;63.50
79469;DHT22;68936;52.526;13.326;2023-04-15T09:14:41;19.80;63.00
79469;DHT22;68936;52.526;13.326;2023-04-15T09:17:09;19.80;64.00
79469;DHT22;68936;52.526;13.326;2023-04-15T09:19:34;19.80;63.90
79469;DHT22;68936;52.526;13.326;2023-04-15T09:22:01;19.90;62.30
79469;DHT22;68936;52.526;13.326;2023-04-15T09:24:35;19.80;62.40
79469;DHT22;68936;52.526;13.326;2023-04-15T09:27:02;19.80;63.40
79469;DHT22;68936;52.526;13.326;2023-04-15T09:29:33;19.90;63.40
79469;DHT22;68936;52.526;13.326;2023-04-15T09:32:17;19.90;64.30
79469;DHT22;68936;52.526;13.326;2023-04-15T09:34:42;19.90;63.70
79469;DHT22;68936;52.526;13.326;2023-04-15T09:37:11;19.80;61.40
79469;DHT22;68936;52.526;13.326;2023-04-15T09:39:51;19.80;59.00
79469;DHT22;68936;52.526;13.326;2023-04-15T09:42:17;19.80;62.70
79469;DHT22;68936;52.526;13.326;2023-04-15T09:44:51;19.80;61.30
79469;DHT22;68936;52.526;13.326;2023-04-15T09:47:29;19.80;59.60
79469;DHT22;68936;52.526;13.326;2023-04-15T09:49:59;19.80;58.60
79469;DHT22;68936;52.526;13.326;2023-04-15T09:52:25;19.80;59.10
79469;DHT22;68936;52.526;13.326;2023-04-15T09:55:00;19.80;58.80
79469;DHT22;68936;52.526;13.326;2023-04-15T09:57:34;19.80;59.20
79469;DHT22;68936;52.526;13.326;2023-04-15T10:00:06;19.80;59.60
79469;DHT22;68936;52.526;13.326;2023-04-15T10:02:33;19.80;58.80
79469;DHT22;68936;52.526;13.326;2023-04-15T10:05:00;19.90;59.40
79469;DHT22;68936;52.526;13.326;2023-04-15T10:07:28;19.80;59.40
79469;DHT22;68936;52.526;13.326;2023-04-15T10:09:54;19.90;59.80
79469;DHT22;68936;52.526;13.326;2023-04-15T10:12:21;19.80;60.00
79469;DHT22;68936;52.526;13.326;2023-04-15T10:14:59;19.90;60.40
79469;DHT22;68936;52.526;13.326;2023-04-15T10:17:27;19.90;60.30
79469;DHT22;68936;52.526;13.326;2023-04-15T10:20:00;19.90;60.90
79469;DHT22;68936;52.526;13.326;2023-04-15T10:22:27;19.80;60.40
79469;DHT22;68936;52.526;13.326;2023-04-15T10:24:54;19.90;61.10
79469;DHT22;68936;52.526;13.326;2023-04-15T10:27:26;19.80;61.00
79469;DHT22;68936;52.526;13.326;2023-04-15T10:29:52;19.90;60.60
79469;DHT22;68936;52.526;13.326;2023-04-15T10:32:19;19.90;61.60
79469;DHT22;68936;52.526;13.326;2023-04-15T10:34:47;19.90;61.10
79469;DHT22;68936;52.526;13.326;2023-04-15T10:37:22;19.90;60.40
79469;DHT22;68936;52.526;13.326;2023-04-15T10:39:57;19.90;61.40
79469;DHT22;68936;52.526;13.326;2023-04-15T10:42:33;19.90;60.50
79469;DHT22;68936;52.526;13.326;2023-04-15T10:45:02;19.90;60.50
79469;DHT22;68936;52.526;13.326;2023-04-15T10:47:28;19.90;60.90
79469;DHT22;68936;52.526;13.326;2023-04-15T10:49:58;19.90;61.20
79469;DHT22;68936;52.526;13.326;2023-04-15T10:52:28;19.90;60.70
79469;DHT22;68936;52.526;13.326;2023-04-15T10:55:03;20.00;60.30
79469;DHT22;68936;52.526;13.326;2023-04-15T10:57:42;20.00;60.00
79469;DHT22;68936;52.526;13.326;2023-04-15T11:00:12;20.00;60.30
79469;DHT22;68936;52.526;13.326;2023-04-15T11:05:18;19.90;59.80
79469;DHT22;68936;52.526;13.326;2023-04-15T11:12:53;20.00;60.60
79469;DHT22;68936;52.526;13.326;2023-04-15T11:17:55;20.00;60.10
79469;DHT22;68936;52.526;13.326;2023-04-15T11:20:23;20.00;60.40
79469;DHT22;68936;52.526;13.326;2023-04-15T11:22:53;20.00;60.50
79469;DHT22;68936;52.526;13.326;2023-04-15T11:25:30;20.10;61.30
79469;DHT22;68936;52.526;13.326;2023-04-15T11:27:56;20.30;61.00
79469;DHT22;68936;52.526;13.326;2023-04-15T11:30:22;20.40;60.50
79469;DHT22;68936;52.526;13.326;2023-04-15T11:32:51;20.50;60.10
79469;DHT22;68936;52.526;13.326;2023-04-15T11:35:18;20.50;60.30
79469;DHT22;68936;52.526;13.326;2023-04-15T11:37:44;20.50;60.10
79469;DHT22;68936;52.526;13.326;2023-04-15T11:40:11;20.50;60.50
79469;DHT22;68936;52.526;13.326;2023-04-15T11:42:37;20.40;60.20
79469;DHT22;68936;52.526;13.326;2023-04-15T11:45:13;20.40;60.30
79469;DHT22;68936;52.526;13.326;2023-04-15T11:47:40;20.40;59.50
79469;DHT22;68936;52.526;13.326;2023-04-15T11:50:21;20.40;60.40
79469;DHT22;68936;52.526;13.326;2023-04-15T11:55:18;20.50;61.50
79469;DHT22;68936;52.526;13.326;2023-04-15T11:57:44;20.50;61.60
79469;DHT22;68936;52.526;13.326;2023-04-15T12:00:12;20.50;61.70
79469;DHT22;68936;52.526;13.326;2023-04-15T12:02:44;20.50;61.20
79469;DHT22;68936;52.526;13.326;2023-04-15T12:05:11;20.50;61.40
79469;DHT22;68936;52.526;13.326;2023-04-15T12:07:56;20.40;61.30
79469;DHT22;68936;52.526;13.326;2023-04-15T12:10:26;20.40;60.80
79469;DHT22;68936;52.526;13.326;2023-04-15T12:12:54;20.40;61.30
79469;DHT22;68936;52.526;13.326;2023-04-15T12:15:26;20.40;61.80
79469;DHT22;68936;52.526;13.326;2023-04-15T12:17:53;20.40;59.80
79469;DHT22;68936;52.526;13.326;2023-04-15T12:20:24;20.20;61.30
79469;DHT22;68936;52.526;13.326;2023-04-15T12:22:49;20.10;61.10
79469;DHT22;68936;52.526;13.326;2023-04-15T12:25:15;20.20;61.20
79469;DHT22;68936;52.526;13.326;2023-04-15T12:39:58;20.60;63.30
79469;DHT22;68936;52.526;13.326;2023-04-15T12:42:24;20.70;64.10
79469;DHT22;68936;52.526;13.326;2023-04-15T12:44:52;20.60;64.20
79469;DHT22;68936;52.526;13.326;2023-04-15T12:47:18;20.70;64.90
79469;DHT22;68936;52.526;13.326;2023-04-15T12:49:43;20.60;64.80
79469;DHT22;68936;52.526;13.326;2023-04-15T12:52:14;20.60;65.00
79469;DHT22;68936;52.526;13.326;2023-04-15T12:54:42;20.50;65.80
79469;DHT22;68936;52.526;13.326;2023-04-15T12:57:08;20.50;65.80
79469;DHT22;68936;52.526;13.326;2023-04-15T12:59:34;20.50;66.60
79469;DHT22;68936;52.526;13.326;2023-04-15T13:02:00;20.40;66.80
79469;DHT22;68936;52.526;13.326;2023-04-15T13:04:29;20.40;67.40
79469;DHT22;68936;52.526;13.326;2023-04-15T13:06:55;20.40;67.40
79469;DHT22;68936;52.526;13.326;2023-04-15T13:09:21;20.40;67.70
79469;DHT22;68936;52.526;13.326;2023-04-15T13:11:46;20.40;67.70
79469;DHT22;68936;52.526;13.326;2023-04-15T13:14:16;20.40;67.70
79469;DHT22;68936;52.526;13.326;2023-04-15T13:16:44;20.40;68.00
79469;DHT22;68936;52.526;13.326;2023-04-15T13:19:10;20.40;68.10
79469;DHT22;68936;52.526;13.326;2023-04-15T13:21:35;20.40;68.20
79469;DHT22;68936;52.526;13.326;2023-04-15T13:24:05;20.40;68.30
79469;DHT22;68936;52.526;13.326;2023-04-15T13:26:31;20.40;68.80
79469;DHT22;68936;52.526;13.326;2023-04-15T13:29:00;20.40;69.10
79469;DHT22;68936;52.526;13.326;2023-04-15T13:31:26;20.40;69.10
79469;DHT22;68936;52.526;13.326;2023-04-15T13:33:51;20.40;69.30
79469;DHT22;68936;52.526;13.326;2023-04-15T13:36:17;20.40;69.20
79469;DHT22;68936;52.526;13.326;2023-04-15T13:38:45;20.40;69.50
79469;DHT22;68936;52.526;13.326;2023-04-15T13:41:11;20.40;69.90
79469;DHT22;68936;52.526;13.326;2023-04-15T13:43:36;20.40;70.10
79469;DHT22;68936;52.526;13.326;2023-04-15T13:46:04;20.40;70.40
79469;DHT22;68936;52.526;13.326;2023-04-15T13:48:30;20.30;69.90
79469;DHT22;68936;52.526;13.326;2023-04-15T13:51:01;20.30;70.10
79469;DHT22;68936;52.526;13.326;2023-04-15T13:53:29;20.30;70.20
79469;DHT22;68936;52.526;13.326;2023-04-15T13:55:55;20.30;69.60
79469;DHT22;68936;52.526;13.326;2023-04-15T20:42:50;19.90;67.40
79469;DHT22;68936;52.526;13.326;2023-04-15T20:45:18;20.30;68.30
79469;DHT22;68936;52.526;13.326;2023-04-15T20:47:46;20.80;66.40
79469;DHT22;68936;52.526;13.326;2023-04-15T20:50:12;21.00;65.10
79469;DHT22;68936;52.526;13.326;2023-04-15T20:52:38;21.00;65.60
79469;DHT22;68936;52.526;13.326;2023-04-15T20:55:05;21.00;66.10
79469;DHT22;68936;52.526;13.326;2023-04-15T20:57:31;21.10;66.60
79469;DHT22;68936;52.526;13.326;2023-04-15T20:59:59;21.10;66.40
79469;DHT22;68936;52.526;13.326;2023-04-15T21:02:29;21.10;66.70
79469;DHT22;68936;52.526;13.326;2023-04-15T21:04:55;21.10;66.60
79469;DHT22;68936;52.526;13.326;2023-04-15T21:07:23;21.10;66.90
79469;DHT22;68936;52.526;13.326;2023-04-15T21:09:49;21.10;67.10
79469;DHT22;68936;52.526;13.326;2023-04-15T21:12:16;21.10;67.20
79469;DHT22;68936;52.526;13.326;2023-04-15T21:14:42;21.00;67.10
79469;DHT22;68936;52.526;13.326;2023-04-15T21:17:08;21.00;67.30
79469;DHT22;68936;52.526;13.326;2023-04-15T21:19:34;21.10;67.20
79469;DHT22;68936;52.526;13.326;2023-04-15T21:22:00;21.10;67.20
79469;DHT22;68936;52.526;13.326;2023-04-15T21:24:27;21.10;67.10
79469;DHT22;68936;52.526;13.326;2023-04-15T21:26:55;21.10;67.10
79469;DHT22;68936;52.526;13.326;2023-04-15T21:29:24;21.10;67.10
79469;DHT22;68936;52.526;13.326;2023-04-15T21:31:52;21.10;66.90
79469;DHT22;68936;52.526;13.326;2023-04-15T21:34:17;21.10;66.60
79469;DHT22;68936;52.526;13.326;2023-04-15T21:36:43;21.10;66.40
79469;DHT22;68936;52.526;13.326;2023-04-15T21:41:35;21.10;66.20
79469;DHT22;68936;52.526;13.326;2023-04-15T21:44:06;21.20;66.20
79469;DHT22;68936;52.526;13.326;2023-04-15T21:46:31;21.20;66.20
79469;DHT22;68936;52.526;13.326;2023-04-15T21:48:57;21.10;66.30
79469;DHT22;68936;52.526;13.326;2023-04-15T21:51:28;21.20;66.40
79469;DHT22;68936;52.526;13.326;2023-04-15T21:53:57;21.20;66.80
79469;DHT22;68936;52.526;13.326;2023-04-15T21:56:23;21.10;66.00
79469;DHT22;68936;52.526;13.326;2023-04-15T21:58:49;21.10;65.20
79469;DHT22;68936;52.526;13.326;2023-04-15T22:01:14;21.10;65.10
79469;DHT22;68936;52.526;13.326;2023-04-15T22:03:41;21.10;64.50
79469;DHT22;68936;52.526;13.326;2023-04-15T22:06:09;21.10;64.40
79469;DHT22;68936;52.526;13.326;2023-04-15T22:08:34;21.10;64.40
79469;DHT22;68936;52.526;13.326;2023-04-15T22:11:00;21.00;64.30
79469;DHT22;68936;52.526;13.326;2023-04-15T22:13:28;21.00;63.90
79469;DHT22;68936;52.526;13.326;2023-04-15T22:15:54;21.00;63.60
79469;DHT22;68936;52.526;13.326;2023-04-15T22:18:19;21.00;63.40
79469;DHT22;68936;52.526;13.326;2023-04-15T22:20:45;21.00;62.90
79469;DHT22;68936;52.526;13.326;2023-04-15T22:23:13;21.00;62.80
79469;DHT22;68936;52.526;13.326;2023-04-15T22:25:41;21.00;62.80
79469;DHT22;68936;52.526;13.326;2023-04-15T22:28:09;20.90;62.80